createdAt,value
2018-03-15T00:00:11.353Z,3.20
2018-03-15T00:02:38.811Z,3.70
2018-03-15T00:05:06.265Z,4.17
2018-03-15T00:07:33.724Z,4.07
2018-03-15T00:10:01.179Z,4.33
2018-03-15T00:12:28.637Z,3.10
2018-03-15T00:14:56.090Z,3.73
2018-03-15T00:17:23.556Z,5.73
2018-03-15T00:19:51.004Z,2.43
2018-03-15T00:22:19.251Z,5.03
2018-03-15T00:24:46.711Z,3.90
2018-03-15T00:27:14.179Z,4.00
2018-03-15T00:29:41.629Z,2.80
2018-03-15T00:32:09.094Z,4.30
2018-03-15T00:34:36.544Z,5.30
2018-03-15T00:37:04.008Z,4.70
2018-03-15T00:39:31.465Z,3.50
2018-03-15T00:41:58.930Z,3.33
2018-03-15T00:44:31.455Z,3.50
2018-03-15T00:46:59.688Z,5.77
2018-03-15T00:49:27.149Z,5.20
2018-03-15T00:51:54.609Z,3.33
2018-03-15T00:54:22.064Z,9.20
2018-03-15T00:56:49.526Z,4.97
2018-03-15T00:59:16.975Z,3.50
2018-03-15T01:01:44.432Z,3.17
2018-03-15T01:04:11.896Z,3.33
2018-03-15T01:06:39.353Z,3.50
2018-03-15T01:09:06.815Z,2.40
2018-03-15T01:11:34.271Z,3.27
2018-03-15T01:14:01.742Z,5.13
2018-03-15T01:16:29.194Z,2.73
2018-03-15T01:18:56.656Z,2.93
2018-03-15T01:21:24.113Z,2.80
2018-03-15T01:23:51.575Z,3.90
2018-03-15T01:26:19.020Z,4.33
2018-03-15T01:28:46.488Z,3.63
2018-03-15T01:31:13.945Z,4.13
2018-03-15T01:33:41.404Z,5.67
2018-03-15T01:36:08.871Z,3.33
2018-03-15T01:38:37.096Z,2.50
2018-03-15T01:41:04.559Z,3.67
2018-03-15T01:43:32.038Z,2.50
2018-03-15T01:45:59.484Z,3.73
2018-03-15T01:48:26.954Z,3.20
2018-03-15T01:50:54.412Z,2.70
2018-03-15T01:53:21.875Z,3.60
2018-03-15T01:55:49.334Z,3.30
2018-03-15T01:58:16.794Z,3.90
2018-03-15T02:00:44.249Z,6.03
2018-03-15T02:03:11.722Z,4.17
2018-03-15T02:05:39.937Z,2.77
2018-03-15T02:08:07.391Z,4.07
2018-03-15T02:10:34.852Z,2.80
2018-03-15T02:13:02.697Z,3.70
2018-03-15T02:15:30.953Z,4.60
2018-03-15T02:17:59.176Z,4.03
2018-03-15T02:20:26.641Z,3.30
2018-03-15T02:22:54.088Z,2.80
2018-03-15T02:25:21.549Z,3.80
2018-03-15T02:27:49.004Z,4.17
2018-03-15T02:30:16.469Z,3.17
2018-03-15T02:32:43.935Z,3.40
2018-03-15T02:35:11.393Z,2.80
2018-03-15T02:37:38.847Z,4.70
2018-03-15T02:40:06.317Z,4.07
2018-03-15T02:42:33.775Z,3.27
2018-03-15T02:45:01.242Z,3.63
2018-03-15T02:47:28.699Z,3.77
2018-03-15T02:49:56.167Z,5.43
2018-03-15T02:52:23.630Z,3.50
2018-03-15T02:54:51.865Z,3.90
2018-03-15T02:57:19.332Z,2.90
2018-03-15T02:59:46.809Z,3.10
2018-03-15T03:02:15.039Z,3.80
2018-03-15T03:04:42.510Z,3.37
2018-03-15T03:07:09.964Z,3.67
2018-03-15T03:09:37.425Z,2.93
2018-03-15T03:12:04.884Z,2.90
2018-03-15T03:14:32.366Z,4.07
2018-03-15T03:16:59.816Z,2.80
2018-03-15T03:19:27.280Z,3.20
2018-03-15T03:21:54.741Z,2.20
2018-03-15T03:24:22.202Z,2.50
2018-03-15T03:26:49.673Z,4.70
2018-03-15T03:29:17.895Z,3.57
2018-03-15T03:31:45.358Z,2.67
2018-03-15T03:34:12.818Z,2.67
2018-03-15T03:36:40.312Z,4.10
2018-03-15T03:39:07.766Z,2.90
2018-03-15T03:41:35.258Z,3.80
2018-03-15T03:44:03.450Z,3.10
2018-03-15T03:46:30.921Z,3.43
2018-03-15T03:48:58.388Z,3.93
2018-03-15T03:51:25.856Z,4.07
2018-03-15T03:53:53.311Z,3.53
2018-03-15T03:56:20.778Z,3.70
2018-03-15T03:58:48.232Z,3.23
2018-03-15T04:01:15.696Z,3.13
2018-03-15T04:03:43.158Z,2.47
2018-03-15T04:06:10.621Z,3.00
2018-03-15T04:08:38.072Z,3.30
2018-03-15T04:11:05.545Z,3.30
2018-03-15T04:13:33.767Z,3.80
2018-03-15T04:16:01.254Z,4.30
2018-03-15T04:18:28.714Z,5.20
2018-03-15T04:20:56.180Z,4.33
2018-03-15T04:23:23.640Z,3.90
2018-03-15T04:25:51.861Z,4.80
2018-03-15T04:28:19.376Z,5.07
2018-03-15T04:30:46.792Z,4.07
2018-03-15T04:33:14.260Z,3.30
2018-03-15T04:35:41.720Z,4.13
2018-03-15T04:38:09.178Z,3.87
2018-03-15T04:40:36.633Z,4.50
2018-03-15T04:43:04.814Z,4.63
2018-03-15T04:45:32.275Z,4.53
2018-03-15T04:47:59.747Z,4.43
2018-03-15T04:50:27.202Z,4.63
2018-03-15T04:52:54.668Z,4.07
2018-03-15T04:55:22.893Z,4.97
2018-03-15T04:57:50.365Z,6.57
2018-03-15T05:00:17.815Z,5.50
2018-03-15T05:02:45.275Z,4.37
2018-03-15T05:05:12.728Z,3.90
2018-03-15T05:07:40.210Z,4.00
2018-03-15T05:10:07.668Z,3.90
2018-03-15T05:12:35.145Z,3.20
2018-03-15T05:15:03.381Z,4.00
2018-03-15T05:17:30.874Z,4.60
2018-03-15T05:19:58.336Z,5.90
2018-03-15T05:22:25.801Z,6.63
2018-03-15T05:24:54.028Z,4.17
2018-03-15T05:27:21.485Z,5.67
2018-03-15T05:29:48.959Z,7.80
2018-03-15T05:32:16.420Z,5.10
2018-03-15T05:34:43.884Z,4.00
2018-03-15T05:37:11.342Z,4.53
2018-03-15T05:39:38.823Z,6.50
2018-03-15T05:42:07.051Z,4.40
2018-03-15T05:44:34.520Z,4.53
2018-03-15T05:47:02.109Z,7.47
2018-03-15T05:49:30.387Z,5.10
2018-03-15T05:51:58.708Z,4.97
2018-03-15T05:54:26.191Z,6.13
2018-03-15T05:56:53.645Z,5.20
2018-03-15T05:59:21.118Z,5.23
2018-03-15T06:01:48.582Z,10.70
2018-03-15T06:04:16.128Z,5.30
2018-03-15T06:06:43.616Z,6.63
2018-03-15T06:09:11.895Z,6.20
2018-03-15T06:11:40.155Z,7.63
2018-03-15T06:14:07.659Z,4.83
2018-03-15T06:16:35.167Z,5.73
2018-03-15T06:19:03.493Z,7.23
2018-03-15T06:21:30.952Z,6.43
2018-03-15T06:23:58.416Z,6.50
2018-03-15T06:26:25.958Z,7.70
2018-03-15T06:28:53.557Z,6.93
2018-03-15T06:31:21.022Z,5.57
2018-03-15T06:33:48.577Z,7.27
2018-03-15T06:36:16.174Z,6.70
2018-03-15T06:38:44.434Z,9.57
2018-03-15T06:41:11.922Z,6.67
2018-03-15T06:43:40.218Z,9.57
2018-03-15T06:46:07.750Z,7.40
2018-03-15T06:48:35.269Z,8.13
2018-03-15T06:51:02.781Z,6.73
2018-03-15T06:53:30.282Z,8.77
2018-03-15T06:55:57.818Z,11.77
2018-03-15T06:58:25.342Z,10.93
2018-03-15T07:00:53.608Z,12.00
2018-03-15T07:03:21.870Z,18.47
2018-03-15T07:05:49.398Z,13.60
2018-03-15T07:08:16.902Z,10.07
2018-03-15T07:10:44.415Z,13.57
2018-03-15T07:13:11.914Z,13.03
2018-03-15T07:15:39.471Z,12.80
2018-03-15T07:18:06.949Z,15.00
2018-03-15T07:20:35.185Z,12.27
2018-03-15T07:23:04.689Z,15.10
2018-03-15T07:25:32.180Z,20.67
2018-03-15T07:28:00.423Z,18.33
2018-03-15T07:30:27.956Z,17.83
2018-03-15T07:32:55.417Z,21.87
2018-03-15T07:35:22.912Z,22.30
2018-03-15T07:37:51.164Z,18.83
2018-03-15T07:40:18.654Z,15.20
2018-03-15T07:42:46.173Z,16.13
2018-03-15T07:45:13.669Z,16.43
2018-03-15T07:47:41.146Z,20.93
2018-03-15T07:50:09.392Z,20.70
2018-03-15T07:52:36.890Z,23.37
2018-03-15T07:55:04.369Z,18.47
2018-03-15T07:57:31.849Z,21.90
2018-03-15T07:59:59.332Z,19.40
2018-03-15T08:02:26.853Z,22.50
2018-03-15T08:04:54.339Z,21.00
2018-03-15T08:07:21.838Z,17.67
2018-03-15T08:09:49.312Z,17.13
2018-03-15T08:12:16.825Z,19.13
2018-03-15T08:14:44.308Z,19.43
2018-03-15T08:17:12.561Z,20.50
2018-03-15T08:19:40.034Z,16.40
2018-03-15T08:22:08.326Z,20.10
2018-03-15T08:24:35.809Z,19.40
2018-03-15T08:27:03.299Z,20.73
2018-03-15T08:29:30.779Z,22.50
2018-03-15T08:31:59.027Z,15.73
2018-03-15T08:34:26.505Z,20.10
2018-03-15T08:36:53.991Z,17.67
2018-03-15T08:39:21.465Z,19.10
2018-03-15T08:41:48.950Z,17.53
2018-03-15T08:44:16.502Z,19.50
2018-03-15T08:46:43.990Z,21.43
2018-03-15T08:49:11.461Z,19.07
2018-03-15T08:51:39.743Z,24.33
2018-03-15T08:54:07.195Z,20.80
2018-03-15T08:56:35.477Z,20.80
2018-03-15T08:59:02.902Z,18.37
2018-03-15T09:01:30.379Z,18.30
2018-03-15T09:03:57.837Z,17.83
2018-03-15T09:06:25.312Z,19.07
2018-03-15T09:08:53.541Z,18.13
2018-03-15T09:11:21.002Z,18.80
2018-03-15T09:13:48.471Z,18.87
2018-03-15T09:16:15.928Z,23.17
2018-03-15T09:18:43.446Z,19.20
2018-03-15T09:21:11.721Z,22.20
2018-03-15T09:23:39.242Z,20.87
2018-03-15T09:26:06.696Z,17.20
2018-03-15T09:28:34.936Z,18.10
2018-03-15T09:31:02.396Z,19.63
2018-03-15T09:33:29.881Z,18.60
2018-03-15T09:35:58.125Z,18.40
2018-03-15T09:38:25.610Z,22.30
2018-03-15T09:40:53.076Z,21.30
2018-03-15T09:43:21.329Z,19.70
2018-03-15T09:45:48.841Z,24.23
2018-03-15T09:48:17.055Z,22.80
2018-03-15T09:50:44.529Z,20.90
2018-03-15T09:53:12.007Z,20.00
2018-03-15T09:55:40.241Z,20.10
2018-03-15T09:58:07.717Z,19.47
2018-03-15T10:00:35.239Z,19.83
2018-03-15T10:03:03.895Z,21.30
2018-03-15T10:05:31.364Z,26.23
2018-03-15T10:07:58.861Z,20.07
2018-03-15T10:10:26.336Z,20.23
2018-03-15T10:12:54.599Z,20.33
2018-03-15T10:15:22.068Z,20.07
2018-03-15T10:17:49.532Z,23.50
2018-03-15T10:20:17.021Z,21.03
2018-03-15T10:22:44.494Z,22.10
2018-03-15T10:25:13.770Z,22.60
2018-03-15T10:27:39.452Z,24.80
2018-03-15T10:30:06.932Z,19.93
2018-03-15T10:32:35.184Z,26.77
2018-03-15T10:35:08.338Z,29.07
2018-03-15T10:37:38.719Z,28.53
2018-03-15T10:40:06.972Z,23.47
2018-03-15T10:42:34.436Z,27.00
2018-03-15T10:45:01.923Z,28.47
2018-03-15T10:47:30.184Z,23.90
2018-03-15T10:49:57.668Z,24.10
2018-03-15T10:52:25.142Z,24.13
2018-03-15T10:54:52.620Z,22.10
2018-03-15T10:57:20.090Z,25.63
2018-03-15T10:59:47.566Z,21.23
2018-03-15T11:02:18.845Z,30.97
2018-03-15T11:04:52.092Z,22.80
2018-03-15T11:07:25.185Z,28.47
2018-03-15T11:09:52.675Z,25.77
2018-03-15T11:12:20.912Z,26.83
2018-03-15T11:14:48.396Z,23.03
2018-03-15T11:17:16.648Z,25.30
2018-03-15T11:19:44.144Z,28.20
2018-03-15T11:22:12.398Z,27.97
2018-03-15T11:24:39.879Z,27.30
2018-03-15T11:27:08.150Z,32.20
2018-03-15T11:29:36.392Z,34.97
2018-03-15T11:32:03.868Z,30.43
2018-03-15T11:34:31.327Z,22.93
2018-03-15T11:36:58.806Z,29.90
2018-03-15T11:39:27.034Z,25.87
2018-03-15T11:41:54.528Z,24.80
2018-03-15T11:44:21.986Z,22.13
2018-03-15T11:46:50.236Z,25.90
2018-03-15T11:49:17.716Z,27.97
2018-03-15T11:51:45.961Z,21.07
2018-03-15T11:54:13.433Z,22.83
2018-03-15T11:56:40.920Z,20.20
2018-03-15T11:59:09.201Z,19.50
2018-03-15T12:01:36.685Z,18.37
2018-03-15T12:04:04.152Z,21.57
2018-03-15T12:06:31.634Z,22.43
2018-03-15T12:08:59.112Z,19.40
2018-03-15T12:11:27.359Z,21.57
2018-03-15T12:13:54.840Z,28.73
2018-03-15T12:16:22.313Z,24.53
2018-03-15T12:18:50.546Z,24.43
2018-03-15T12:21:18.019Z,21.30
2018-03-15T12:23:45.476Z,22.70
2018-03-15T12:26:12.959Z,23.07
2018-03-15T12:28:40.417Z,24.83
2018-03-15T12:31:07.892Z,28.10
2018-03-15T12:33:36.116Z,19.03
2018-03-15T12:36:03.587Z,19.53
2018-03-15T12:38:31.064Z,20.00
2018-03-15T12:40:58.521Z,21.73
2018-03-15T12:43:26.756Z,19.93
2018-03-15T12:45:54.221Z,20.23
2018-03-15T12:48:21.692Z,20.03
2018-03-15T12:50:49.160Z,20.90
2018-03-15T12:53:16.644Z,21.30
2018-03-15T12:55:44.350Z,22.40
2018-03-15T12:58:11.813Z,23.83
2018-03-15T13:00:39.283Z,23.83
2018-03-15T13:03:06.751Z,23.40
2018-03-15T13:05:34.212Z,28.17
2018-03-15T13:08:01.695Z,26.40
2018-03-15T13:10:29.931Z,25.37
2018-03-15T13:12:57.416Z,23.20
2018-03-15T13:15:25.665Z,25.07
2018-03-15T13:17:53.133Z,27.10
2018-03-15T13:20:20.599Z,30.43
2018-03-15T13:22:48.065Z,27.10
2018-03-15T13:25:16.292Z,26.67
2018-03-15T13:27:43.768Z,26.70
2018-03-15T13:30:11.278Z,27.90
2018-03-15T13:32:38.704Z,22.00
2018-03-15T13:35:06.169Z,25.23
2018-03-15T13:37:34.921Z,24.27
2018-03-15T13:40:02.380Z,23.00
2018-03-15T13:42:29.832Z,27.03
2018-03-15T13:44:57.298Z,29.40
2018-03-15T13:47:31.825Z,24.67
2018-03-15T13:49:59.296Z,25.77
2018-03-15T13:52:26.744Z,27.00
2018-03-15T13:54:54.217Z,28.47
2018-03-15T13:57:21.681Z,24.70
2018-03-15T13:59:49.915Z,23.43
2018-03-15T14:02:17.377Z,22.60
2018-03-15T14:04:44.852Z,23.67
2018-03-15T14:07:12.308Z,21.60
2018-03-15T14:09:39.783Z,19.90
2018-03-15T14:12:07.240Z,20.13
2018-03-15T14:14:35.485Z,26.63
2018-03-15T14:17:02.941Z,20.87
2018-03-15T14:19:30.417Z,21.53
2018-03-15T14:21:57.895Z,21.37
2018-03-15T14:24:26.132Z,21.17
2018-03-15T14:26:53.599Z,24.60
2018-03-15T14:29:21.102Z,21.47
2018-03-15T14:31:49.321Z,20.33
2018-03-15T14:34:16.793Z,19.43
2018-03-15T14:36:44.244Z,23.47
2018-03-15T14:39:11.716Z,18.30
2018-03-15T14:41:39.179Z,23.53
2018-03-15T14:44:06.652Z,26.27
2018-03-15T14:46:34.923Z,21.17
2018-03-15T14:49:02.362Z,25.33
2018-03-15T14:51:29.887Z,25.57
2018-03-15T14:53:58.073Z,25.00
2018-03-15T14:56:25.544Z,26.03
2018-03-15T14:58:53.005Z,25.90
2018-03-15T15:01:20.468Z,25.53
2018-03-15T15:03:47.940Z,25.67
2018-03-15T15:06:16.206Z,25.10
2018-03-15T15:08:43.656Z,32.03
2018-03-15T15:11:11.126Z,23.60
2018-03-15T15:13:38.580Z,24.73
2018-03-15T15:16:06.057Z,26.40
2018-03-15T15:18:34.290Z,23.63
2018-03-15T15:21:01.752Z,33.50
2018-03-15T15:23:29.218Z,26.13
2018-03-15T15:25:56.687Z,27.37
2018-03-15T15:28:24.149Z,25.53
2018-03-15T15:30:51.629Z,21.33
2018-03-15T15:33:19.096Z,24.87
2018-03-15T15:35:46.581Z,25.57
2018-03-15T15:38:14.041Z,21.43
2018-03-15T15:40:41.512Z,28.30
2018-03-15T15:43:08.991Z,24.33
2018-03-15T15:45:36.464Z,27.20
2018-03-15T15:48:04.701Z,23.27
2018-03-15T15:50:32.185Z,24.27
2018-03-15T15:52:59.658Z,23.87
2018-03-15T15:55:27.151Z,28.03
2018-03-15T15:57:54.628Z,26.23
2018-03-15T16:00:22.096Z,25.00
2018-03-15T16:02:49.576Z,25.50
2018-03-15T16:05:17.034Z,29.10
2018-03-15T16:07:44.503Z,25.03
2018-03-15T16:10:12.733Z,23.90
2018-03-15T16:12:40.310Z,22.83
2018-03-15T16:15:07.774Z,27.87
2018-03-15T16:17:35.268Z,23.87
2018-03-15T16:20:02.756Z,23.53
2018-03-15T16:22:30.336Z,26.60
2018-03-15T16:24:57.834Z,22.23
2018-03-15T16:27:25.355Z,27.60
2018-03-15T16:29:52.844Z,25.70
2018-03-15T16:32:21.095Z,23.43
2018-03-15T16:34:48.577Z,24.70
2018-03-15T16:37:16.847Z,30.40
2018-03-15T16:39:45.108Z,23.10
2018-03-15T16:42:12.737Z,24.33
2018-03-15T16:44:40.199Z,22.40
2018-03-15T16:47:07.669Z,23.27
2018-03-15T16:49:36.282Z,27.83
2018-03-15T16:52:06.040Z,22.20
2018-03-15T16:54:33.576Z,20.97
2018-03-15T16:57:01.055Z,18.60
2018-03-15T16:59:28.584Z,18.63
2018-03-15T17:01:57.346Z,16.80
2018-03-15T17:04:24.900Z,15.30
2018-03-15T17:06:52.712Z,12.47
2018-03-15T17:09:20.189Z,13.17
2018-03-15T17:11:47.644Z,7.03
2018-03-15T17:14:15.112Z,7.70
2018-03-15T17:16:42.583Z,12.73
2018-03-15T17:19:10.090Z,8.83
2018-03-15T17:21:38.417Z,7.13
2018-03-15T17:24:05.904Z,8.80
2018-03-15T17:26:33.382Z,8.40
2018-03-15T17:29:01.614Z,9.03
2018-03-15T17:31:29.093Z,6.27
2018-03-15T17:33:56.553Z,8.20
2018-03-15T17:36:24.795Z,12.00
2018-03-15T17:38:52.264Z,9.10
2018-03-15T17:41:19.725Z,7.60
2018-03-15T17:43:48.025Z,18.60
2018-03-15T17:46:16.259Z,31.50
2018-03-15T17:48:43.734Z,15.60
2018-03-15T17:51:11.310Z,6.23
2018-03-15T17:53:38.781Z,6.80
2018-03-15T17:56:07.008Z,6.40
2018-03-15T17:58:34.608Z,6.87
2018-03-15T18:01:02.060Z,8.17
2018-03-15T18:03:30.305Z,7.53
2018-03-15T18:05:57.834Z,6.40
2018-03-15T18:08:25.318Z,5.00
2018-03-15T18:10:52.774Z,6.17
2018-03-15T18:13:20.273Z,6.50
2018-03-15T18:15:48.550Z,4.80
2018-03-15T18:18:15.982Z,4.67
2018-03-15T18:20:43.455Z,5.73
2018-03-15T18:23:10.918Z,5.37
2018-03-15T18:25:38.454Z,3.10
2018-03-15T18:28:05.989Z,4.00
2018-03-15T18:30:33.492Z,3.10
2018-03-15T18:33:00.949Z,6.50
2018-03-15T18:35:28.429Z,4.93
2018-03-15T18:37:56.652Z,4.90
2018-03-15T18:40:24.132Z,4.60
2018-03-15T18:42:51.591Z,2.53
2018-03-15T18:45:19.093Z,2.70
2018-03-15T18:47:46.550Z,4.17
2018-03-15T18:50:14.029Z,1.73
2018-03-15T18:52:41.503Z,4.77
2018-03-15T18:55:09.141Z,1.70
2018-03-15T18:57:36.669Z,2.10
2018-03-15T19:00:04.979Z,3.00
2018-03-15T19:02:32.532Z,4.30
2018-03-15T19:05:00.046Z,5.10
2018-03-15T19:07:27.615Z,2.10
2018-03-15T19:09:56.116Z,1.83
2018-03-15T19:12:24.390Z,1.70
2018-03-15T19:14:52.655Z,1.57
2018-03-15T19:17:20.909Z,1.30
2018-03-15T19:19:48.405Z,2.33
2018-03-15T19:22:15.899Z,1.87
2018-03-15T19:24:43.510Z,2.20
2018-03-15T19:27:11.766Z,1.80
2018-03-15T19:29:39.288Z,1.30
2018-03-15T19:32:06.795Z,2.07
2018-03-15T19:34:35.057Z,2.77
2018-03-15T19:37:02.585Z,1.83
2018-03-15T19:39:30.073Z,3.17
2018-03-15T19:41:57.601Z,3.30
2018-03-15T19:44:25.117Z,3.30
2018-03-15T19:46:54.972Z,2.90
2018-03-15T19:49:22.476Z,3.60
2018-03-15T19:51:50.752Z,1.80
2018-03-15T19:54:18.999Z,1.57
2018-03-15T19:56:46.476Z,1.90
2018-03-15T19:59:13.989Z,1.83
2018-03-15T20:01:41.468Z,1.60
2018-03-15T20:04:08.939Z,2.73
2018-03-15T20:06:36.408Z,2.30
2018-03-15T20:09:03.884Z,2.77
2018-03-15T20:11:32.142Z,1.70
2018-03-15T20:14:00.428Z,2.10
2018-03-15T20:16:28.690Z,1.53
2018-03-15T20:19:02.083Z,1.50
2018-03-15T20:21:29.649Z,1.33
2018-03-15T20:24:02.906Z,1.43
2018-03-15T20:26:30.484Z,1.60
2018-03-15T20:28:57.941Z,1.33
2018-03-15T20:31:25.428Z,1.70
2018-03-15T20:33:58.729Z,1.90
2018-03-15T20:36:27.048Z,1.83
2018-03-15T20:38:54.505Z,1.63
2018-03-15T20:41:24.776Z,4.00
2018-03-15T20:43:53.072Z,1.67
2018-03-15T20:49:24.680Z,2.70
2018-03-15T20:51:52.164Z,3.10
2018-03-15T20:54:19.619Z,2.97
2018-03-15T20:56:47.080Z,1.80
2018-03-15T20:59:14.543Z,1.83
2018-03-15T21:01:42.000Z,1.70
2018-03-15T21:04:09.484Z,2.10
2018-03-15T21:06:37.717Z,1.90
2018-03-15T21:09:05.178Z,1.83
2018-03-15T21:11:32.658Z,1.50
2018-03-15T21:14:00.111Z,1.60
2018-03-15T21:16:27.588Z,2.67
2018-03-15T21:18:55.809Z,1.50
2018-03-15T21:21:23.279Z,1.87
2018-03-15T21:23:50.734Z,1.93
2018-03-15T21:26:18.201Z,2.07
2018-03-15T21:28:45.654Z,2.20
2018-03-15T21:31:13.101Z,2.40
2018-03-15T21:33:40.571Z,3.40
2018-03-15T21:36:08.024Z,3.23
2018-03-15T21:38:35.495Z,3.60
2018-03-15T21:41:02.944Z,4.17
2018-03-15T21:43:30.405Z,3.00
2018-03-15T21:45:57.856Z,3.60
2018-03-15T21:48:25.316Z,5.17
2018-03-15T21:50:52.773Z,3.70
2018-03-15T21:53:20.238Z,3.80
2018-03-15T21:55:47.694Z,3.67
2018-03-15T21:58:15.157Z,3.43
2018-03-15T22:00:42.609Z,3.77
2018-03-15T22:03:10.413Z,2.80
2018-03-15T22:05:38.669Z,3.83
2018-03-15T22:08:06.169Z,3.50
2018-03-15T22:10:33.675Z,4.00
2018-03-15T22:13:01.186Z,3.87
2018-03-15T22:15:28.684Z,4.43
2018-03-15T22:17:56.181Z,2.60
2018-03-15T22:20:24.434Z,3.10
2018-03-15T22:22:51.947Z,4.43
2018-03-15T22:25:19.439Z,3.27
2018-03-15T22:27:46.933Z,2.30
2018-03-15T22:30:15.226Z,2.07
2018-03-15T22:32:42.722Z,1.93
2018-03-15T22:35:10.222Z,1.50
2018-03-15T22:37:38.579Z,1.70
2018-03-15T22:40:06.083Z,1.90
2018-03-15T22:42:33.589Z,1.50
2018-03-15T22:45:01.141Z,2.40
2018-03-15T22:47:28.637Z,4.60
2018-03-15T22:49:57.850Z,2.40
2018-03-15T22:52:25.370Z,2.73
2018-03-15T22:54:52.887Z,2.30
2018-03-15T22:57:20.375Z,3.10
2018-03-15T22:59:47.869Z,2.30
2018-03-15T23:02:16.146Z,1.90
2018-03-15T23:04:44.420Z,1.93
2018-03-15T23:07:12.674Z,1.70
2018-03-15T23:09:40.178Z,1.90
2018-03-15T23:12:07.662Z,1.70
2018-03-15T23:14:35.169Z,2.63
2018-03-15T23:17:03.422Z,2.47
2018-03-15T23:19:30.943Z,2.70
2018-03-15T23:21:58.434Z,1.47
2018-03-15T23:24:25.934Z,1.83
2018-03-15T23:26:54.201Z,2.00
2018-03-15T23:29:22.467Z,2.50
2018-03-15T23:31:49.964Z,2.90
2018-03-15T23:34:17.459Z,2.50
2018-03-15T23:36:44.957Z,2.43
2018-03-15T23:39:13.206Z,1.83
2018-03-15T23:41:40.703Z,2.60
2018-03-15T23:44:08.194Z,2.00
2018-03-15T23:46:35.694Z,1.70
2018-03-15T23:49:03.190Z,2.00
2018-03-15T23:51:30.689Z,2.60
2018-03-15T23:53:58.186Z,2.30
2018-03-15T23:56:26.458Z,2.07
2018-03-15T23:58:54.713Z,2.20
